createdAt,value
2024-02-23T00:00:47.441Z,6.60
2024-02-23T00:03:22.297Z,5.45
2024-02-23T00:05:50.138Z,3.92
2024-02-23T00:08:21.687Z,4.72
2024-02-23T00:10:49.340Z,2.65
2024-02-23T00:13:17.379Z,5.90
2024-02-23T00:15:45.246Z,6.57
2024-02-23T00:18:14.522Z,5.72
2024-02-23T00:20:42.708Z,4.90
2024-02-23T00:23:14.884Z,3.47
2024-02-23T00:25:42.923Z,4.12
2024-02-23T00:28:11.946Z,3.62
2024-02-23T00:30:41.821Z,5.25
2024-02-23T00:33:12.600Z,5.25
2024-02-23T00:35:42.792Z,6.85
2024-02-23T00:38:19.561Z,4.53
2024-02-23T00:40:53.313Z,3.55
2024-02-23T00:43:24.654Z,3.90
2024-02-23T00:46:01.646Z,4.75
2024-02-23T00:48:29.652Z,4.65
2024-02-23T00:50:57.781Z,3.08
2024-02-23T00:53:25.570Z,2.95
2024-02-23T00:55:54.973Z,6.95
2024-02-23T00:58:30.479Z,4.28
2024-02-23T01:01:04.144Z,3.65
2024-02-23T01:03:32.483Z,4.97
2024-02-23T01:06:04.391Z,4.65
2024-02-23T01:08:32.891Z,3.15
2024-02-23T01:11:00.976Z,4.22
2024-02-23T01:13:29.278Z,8.35
2024-02-23T01:15:57.606Z,5.53
2024-02-23T01:18:27.886Z,3.62
2024-02-23T01:20:58.046Z,6.10
2024-02-23T01:23:26.227Z,8.85
2024-02-23T01:25:53.664Z,6.37
2024-02-23T01:28:23.667Z,3.87
2024-02-23T01:30:52.425Z,7.25
2024-02-23T01:33:20.250Z,2.90
2024-02-23T01:35:48.519Z,10.20
2024-02-23T01:38:21.706Z,6.05
2024-02-23T01:40:49.634Z,4.43
2024-02-23T01:43:17.801Z,6.35
2024-02-23T01:45:45.545Z,6.90
2024-02-23T01:48:13.506Z,7.87
2024-02-23T01:50:41.867Z,6.40
2024-02-23T01:53:11.637Z,5.80
2024-02-23T01:55:42.459Z,4.70
2024-02-23T01:58:13.882Z,7.32
2024-02-23T02:00:41.531Z,4.03
2024-02-23T02:03:12.689Z,3.55
2024-02-23T02:05:40.517Z,3.75
2024-02-23T02:08:08.366Z,6.28
2024-02-23T02:10:36.068Z,3.80
2024-02-23T02:13:07.065Z,7.47
2024-02-23T02:15:34.376Z,5.25
2024-02-23T02:18:02.022Z,5.37
2024-02-23T02:20:29.746Z,4.10
2024-02-23T02:22:57.113Z,4.45
2024-02-23T02:25:26.201Z,4.30
2024-02-23T02:27:54.657Z,4.87
2024-02-23T02:30:29.048Z,4.18
2024-02-23T02:32:56.660Z,4.05
2024-02-23T02:35:24.266Z,5.05
2024-02-23T02:37:52.165Z,4.00
2024-02-23T02:40:19.723Z,3.58
2024-02-23T02:42:47.120Z,4.55
2024-02-23T02:45:19.635Z,4.17
2024-02-23T02:47:48.594Z,3.30
2024-02-23T02:50:15.948Z,4.05
2024-02-23T02:52:43.479Z,3.83
2024-02-23T02:55:13.720Z,3.80
2024-02-23T02:57:41.119Z,6.70
2024-02-23T03:00:11.764Z,3.87
2024-02-23T03:02:40.355Z,4.50
2024-02-23T03:05:07.932Z,6.78
2024-02-23T03:07:35.258Z,33.45
2024-02-23T03:10:03.177Z,4.85
2024-02-23T03:12:31.125Z,7.00
2024-02-23T03:14:58.432Z,7.55
2024-02-23T03:17:27.166Z,5.60
2024-02-23T03:19:55.045Z,5.60
2024-02-23T03:22:22.412Z,5.50
2024-02-23T03:24:50.001Z,6.93
2024-02-23T03:27:17.424Z,4.40
2024-02-23T03:29:44.879Z,16.40
2024-02-23T03:32:12.472Z,6.65
2024-02-23T03:34:39.789Z,4.85
2024-02-23T03:37:07.089Z,8.27
2024-02-23T03:39:38.139Z,4.90
2024-02-23T03:42:05.614Z,4.68
2024-02-23T03:44:33.161Z,6.03
2024-02-23T03:47:01.036Z,6.60
2024-02-23T03:49:28.545Z,10.63
2024-02-23T03:51:55.829Z,7.65
2024-02-23T03:54:23.397Z,6.62
2024-02-23T03:56:50.625Z,5.78
2024-02-23T03:59:17.839Z,9.73
2024-02-23T04:01:45.731Z,5.43
2024-02-23T04:04:13.397Z,5.22
2024-02-23T04:06:40.963Z,4.18
2024-02-23T04:09:09.935Z,6.15
2024-02-23T04:11:37.620Z,7.03
2024-02-23T04:14:06.757Z,4.78
2024-02-23T04:16:34.175Z,4.85
2024-02-23T04:19:02.176Z,6.25
2024-02-23T04:21:29.464Z,6.32
2024-02-23T04:23:56.714Z,5.53
2024-02-23T04:26:24.410Z,5.55
2024-02-23T04:28:51.743Z,8.32
2024-02-23T04:31:19.095Z,9.20
2024-02-23T04:33:46.658Z,4.90
2024-02-23T04:36:17.324Z,6.75
2024-02-23T04:38:45.767Z,7.55
2024-02-23T04:41:13.428Z,5.72
2024-02-23T04:43:40.927Z,5.57
2024-02-23T04:46:09.994Z,4.22
2024-02-23T04:48:40.983Z,5.78
2024-02-23T04:51:11.076Z,12.90
2024-02-23T04:53:39.125Z,13.38
2024-02-23T04:56:06.902Z,4.12
2024-02-23T04:58:34.289Z,4.18
2024-02-23T05:01:01.973Z,3.75
2024-02-23T05:03:29.381Z,4.97
2024-02-23T05:05:56.645Z,7.90
2024-02-23T05:08:25.567Z,4.53
2024-02-23T05:10:56.177Z,7.60
2024-02-23T05:13:24.543Z,3.53
2024-02-23T05:15:51.926Z,6.97
2024-02-23T05:18:19.252Z,3.67
2024-02-23T05:20:47.464Z,3.20
2024-02-23T05:23:17.003Z,3.72
2024-02-23T05:25:44.328Z,4.72
2024-02-23T05:28:11.971Z,3.90
2024-02-23T05:30:39.293Z,4.03
2024-02-23T05:33:06.586Z,4.68
2024-02-23T05:35:35.712Z,3.40
2024-02-23T05:38:04.030Z,7.15
2024-02-23T05:40:31.705Z,4.03
2024-02-23T05:42:59.517Z,2.50
2024-02-23T05:45:26.940Z,5.00
2024-02-23T05:47:54.666Z,5.72
2024-02-23T05:50:22.371Z,4.57
2024-02-23T05:52:54.801Z,5.20
2024-02-23T05:55:24.347Z,2.85
2024-02-23T05:57:54.437Z,2.53
2024-02-23T06:00:22.908Z,4.45
2024-02-23T06:02:52.836Z,4.43
2024-02-23T06:05:20.373Z,8.57
2024-02-23T06:07:47.866Z,6.50
2024-02-23T06:10:18.845Z,5.57
2024-02-23T06:12:48.528Z,5.17
2024-02-23T06:15:16.289Z,3.05
2024-02-23T06:17:43.986Z,3.10
2024-02-23T06:20:11.999Z,8.68
2024-02-23T06:22:42.655Z,12.93
2024-02-23T06:25:12.966Z,6.30
2024-02-23T06:27:41.210Z,8.00
2024-02-23T06:30:09.308Z,4.80
2024-02-23T06:32:59.224Z,4.72
2024-02-23T06:35:28.089Z,5.12
2024-02-23T06:37:56.389Z,8.50
2024-02-23T06:40:26.464Z,4.30
2024-02-23T06:42:56.457Z,9.65
2024-02-23T06:45:27.039Z,5.50
2024-02-23T06:47:55.965Z,7.75
2024-02-23T06:50:25.074Z,8.80
2024-02-23T06:52:52.781Z,5.97
2024-02-23T06:55:25.093Z,9.80
2024-02-23T06:57:53.229Z,4.90
2024-02-23T07:00:22.741Z,5.22
2024-02-23T07:02:53.050Z,6.35
2024-02-23T07:05:24.285Z,5.32
2024-02-23T07:07:54.830Z,11.95
2024-02-23T07:10:26.503Z,6.00
2024-02-23T07:12:58.708Z,4.82
2024-02-23T07:15:27.310Z,5.80
2024-02-23T07:17:55.170Z,4.57
2024-02-23T07:20:25.224Z,10.35
2024-02-23T07:22:54.780Z,6.87
2024-02-23T07:25:23.330Z,7.95
2024-02-23T07:27:54.553Z,7.95
2024-02-23T07:30:24.850Z,9.80
2024-02-23T07:32:53.774Z,7.28
2024-02-23T07:35:22.311Z,8.07
2024-02-23T07:37:50.430Z,7.00
2024-02-23T07:40:21.380Z,6.62
2024-02-23T07:42:54.862Z,7.53
2024-02-23T07:45:24.970Z,5.90
2024-02-23T07:47:58.321Z,8.05
2024-02-23T07:50:27.020Z,5.70
2024-02-23T07:52:57.553Z,7.05
2024-02-23T07:55:25.773Z,19.45
2024-02-23T07:57:53.805Z,7.82
2024-02-23T08:00:23.484Z,10.02
2024-02-23T08:02:52.860Z,8.27
2024-02-23T08:05:20.929Z,7.93
2024-02-23T08:07:51.017Z,7.50
2024-02-23T08:10:19.432Z,7.40
2024-02-23T08:12:48.031Z,10.10
2024-02-23T08:15:16.105Z,9.65
2024-02-23T08:17:44.727Z,7.97
2024-02-23T08:20:13.010Z,12.88
2024-02-23T08:22:40.904Z,8.93
2024-02-23T08:25:10.781Z,8.10
2024-02-23T08:27:41.960Z,9.32
2024-02-23T08:30:12.084Z,5.53
2024-02-23T08:32:40.595Z,11.30
2024-02-23T08:35:09.625Z,7.45
2024-02-23T08:37:39.722Z,7.32
2024-02-23T08:40:10.564Z,5.40
2024-02-23T08:42:38.967Z,6.62
2024-02-23T08:45:14.598Z,6.45
2024-02-23T08:47:48.533Z,4.65
2024-02-23T08:50:23.827Z,5.03
2024-02-23T08:52:56.957Z,5.80
2024-02-23T08:55:50.373Z,7.55
2024-02-23T08:58:18.876Z,8.80
2024-02-23T09:00:46.670Z,7.10
2024-02-23T09:03:15.403Z,8.38
2024-02-23T09:05:43.500Z,4.87
2024-02-23T09:08:11.498Z,5.05
2024-02-23T09:10:40.095Z,9.07
2024-02-23T09:13:08.129Z,5.35
2024-02-23T09:15:35.771Z,3.80
2024-02-23T09:18:03.491Z,9.48
2024-02-23T09:20:32.199Z,4.22
2024-02-23T09:23:00.169Z,5.60
2024-02-23T09:25:27.894Z,4.35
2024-02-23T09:27:59.736Z,5.45
2024-02-23T09:30:27.457Z,6.35
2024-02-23T09:32:55.920Z,7.10
2024-02-23T09:35:27.853Z,4.22
2024-02-23T09:37:55.696Z,5.25
2024-02-23T09:40:24.812Z,7.00
2024-02-23T09:43:00.788Z,6.47
2024-02-23T09:45:28.467Z,5.62
2024-02-23T09:47:58.120Z,4.07
2024-02-23T09:50:28.683Z,16.85
2024-02-23T09:52:59.940Z,9.77
2024-02-23T09:55:27.149Z,8.05
2024-02-23T09:57:58.118Z,10.18
2024-02-23T10:00:25.790Z,6.37
2024-02-23T10:02:55.037Z,6.10
2024-02-23T10:05:24.888Z,5.75
2024-02-23T10:07:55.441Z,7.60
2024-02-23T10:10:30.925Z,9.52
2024-02-23T10:13:01.455Z,19.20
2024-02-23T10:15:32.506Z,12.93
2024-02-23T10:18:01.994Z,8.93
2024-02-23T10:20:30.002Z,12.60
2024-02-23T10:22:58.954Z,7.28
2024-02-23T10:25:26.467Z,10.88
2024-02-23T10:27:53.645Z,10.05
2024-02-23T10:30:20.800Z,14.30
2024-02-23T10:32:49.030Z,16.62
2024-02-23T10:35:19.148Z,8.38
2024-02-23T10:37:51.282Z,7.18
2024-02-23T10:40:20.172Z,8.52
2024-02-23T10:42:55.011Z,12.23
2024-02-23T10:45:23.059Z,4.30
2024-02-23T10:47:51.916Z,4.78
2024-02-23T10:50:21.072Z,4.05
2024-02-23T10:52:48.824Z,7.47
2024-02-23T10:55:19.389Z,4.95
2024-02-23T10:57:47.083Z,2.85
2024-02-23T11:00:18.460Z,4.57
2024-02-23T11:02:49.508Z,3.67
2024-02-23T11:05:17.900Z,5.07
2024-02-23T11:07:50.567Z,3.00
2024-02-23T11:10:28.783Z,3.58
2024-02-23T11:13:03.513Z,3.83
2024-02-23T11:15:40.863Z,6.43
2024-02-23T11:18:27.245Z,3.20
2024-02-23T11:21:01.304Z,4.03
2024-02-23T11:23:46.280Z,4.15
2024-02-23T11:26:17.768Z,4.68
2024-02-23T11:28:51.380Z,3.83
2024-02-23T11:31:25.763Z,4.00
2024-02-23T11:37:10.671Z,10.27
2024-02-23T11:39:41.084Z,3.50
2024-02-23T11:42:11.455Z,5.25
2024-02-23T11:44:40.011Z,4.37
2024-02-23T11:47:08.785Z,3.00
2024-02-23T11:49:36.788Z,6.00
2024-02-23T11:52:05.805Z,4.45
2024-02-23T11:54:36.490Z,3.92
2024-02-23T11:57:04.845Z,4.28
2024-02-23T11:59:33.985Z,4.10
2024-02-23T12:02:03.931Z,3.67
2024-02-23T12:08:05.571Z,4.35
2024-02-23T12:14:03.883Z,5.17
2024-02-23T12:16:34.836Z,7.35
2024-02-23T12:25:01.260Z,6.05
2024-02-23T12:27:30.914Z,6.55
2024-02-23T12:33:32.883Z,8.20
2024-02-23T12:36:06.262Z,8.27
2024-02-23T12:38:34.150Z,6.62
2024-02-23T12:41:04.083Z,9.20
2024-02-23T12:43:31.522Z,10.77
2024-02-23T12:49:29.624Z,14.43
2024-02-23T12:51:58.246Z,13.38
2024-02-23T12:54:26.522Z,10.48
2024-02-23T12:56:54.388Z,16.70
2024-02-23T12:59:23.308Z,9.57
2024-02-23T13:05:10.739Z,12.20
2024-02-23T13:11:09.994Z,11.77
2024-02-23T13:17:08.838Z,9.63
2024-02-23T13:19:37.489Z,13.07
2024-02-23T13:22:05.446Z,13.52
2024-02-23T13:28:03.924Z,14.05
2024-02-23T13:30:33.996Z,13.47
2024-02-23T13:33:02.151Z,13.68
2024-02-23T13:35:31.608Z,14.23
2024-02-23T13:38:04.567Z,25.35
2024-02-23T13:40:33.199Z,12.98
2024-02-23T13:43:00.827Z,11.43
2024-02-23T13:45:28.039Z,13.40
2024-02-23T13:48:02.813Z,12.70
2024-02-23T13:50:30.728Z,16.95
2024-02-23T13:52:58.744Z,18.23
2024-02-23T13:55:26.063Z,19.17
2024-02-23T13:57:53.498Z,16.85
2024-02-23T14:00:21.625Z,15.77
2024-02-23T14:02:50.387Z,12.77
2024-02-23T14:05:19.959Z,16.35
2024-02-23T14:07:47.392Z,15.63
2024-02-23T14:10:15.086Z,18.98
2024-02-23T14:12:42.692Z,19.85
2024-02-23T14:15:11.954Z,18.90
2024-02-23T14:17:40.003Z,18.35
2024-02-23T14:20:08.791Z,18.70
2024-02-23T14:22:37.068Z,14.55
2024-02-23T14:25:05.700Z,17.12
2024-02-23T14:27:32.876Z,17.87
2024-02-23T14:30:00.568Z,23.73
2024-02-23T14:32:28.231Z,22.62
2024-02-23T14:34:56.550Z,22.52
2024-02-23T14:37:23.906Z,21.27
2024-02-23T14:39:51.362Z,16.48
2024-02-23T14:42:18.615Z,22.17
2024-02-23T14:44:46.038Z,17.45
2024-02-23T14:47:14.530Z,17.42
2024-02-23T14:49:42.091Z,20.67
2024-02-23T14:52:14.784Z,16.87
2024-02-23T14:54:45.139Z,15.48
2024-02-23T14:57:12.425Z,15.00
2024-02-23T14:59:47.750Z,15.50
2024-02-23T15:02:21.458Z,15.05
2024-02-23T15:04:49.321Z,16.50
2024-02-23T15:07:18.866Z,13.48
2024-02-23T15:09:47.024Z,16.05
2024-02-23T15:12:15.121Z,12.25
2024-02-23T15:14:43.604Z,19.48
2024-02-23T15:17:12.576Z,20.73
2024-02-23T15:19:40.448Z,16.65
2024-02-23T15:22:15.964Z,21.23
2024-02-23T15:24:46.843Z,16.27
2024-02-23T15:29:58.060Z,22.75
2024-02-23T15:32:26.527Z,13.60
2024-02-23T15:34:54.504Z,21.42
2024-02-23T15:37:22.192Z,18.10
2024-02-23T15:39:55.263Z,19.25
2024-02-23T15:42:25.023Z,36.42
2024-02-23T15:44:53.226Z,26.27
2024-02-23T15:47:21.952Z,20.35
2024-02-23T15:50:08.616Z,14.65
2024-02-23T15:52:38.606Z,27.75
2024-02-23T15:55:06.967Z,18.73
2024-02-23T15:57:34.799Z,19.30
2024-02-23T16:00:05.891Z,16.83
2024-02-23T16:02:42.484Z,22.70
2024-02-23T16:05:15.617Z,23.08
2024-02-23T16:07:46.743Z,21.02
2024-02-23T16:10:17.348Z,20.95
2024-02-23T16:12:51.665Z,22.75
2024-02-23T16:15:19.922Z,31.23
2024-02-23T16:17:48.736Z,30.48
2024-02-23T16:20:17.654Z,32.17
2024-02-23T16:22:45.420Z,33.90
2024-02-23T16:25:14.297Z,39.80
2024-02-23T16:27:43.323Z,32.92
2024-02-23T16:30:11.779Z,49.72
2024-02-23T16:32:39.869Z,37.53
2024-02-23T16:35:08.036Z,38.83
2024-02-23T16:37:35.878Z,34.85
2024-02-23T16:40:03.894Z,44.25
2024-02-23T16:42:32.559Z,44.28
2024-02-23T16:45:00.359Z,46.20
2024-02-23T16:47:30.068Z,43.30
2024-02-23T16:49:57.853Z,35.80
2024-02-23T16:52:26.314Z,32.72
2024-02-23T16:54:55.099Z,33.03
2024-02-23T16:57:27.580Z,28.40
2024-02-23T16:59:57.967Z,29.37
2024-02-23T17:02:28.520Z,43.92
2024-02-23T17:04:56.616Z,25.30
2024-02-23T17:07:24.568Z,34.80
2024-02-23T17:09:52.261Z,22.10
2024-02-23T17:12:22.724Z,26.92
2024-02-23T17:14:50.888Z,27.85
2024-02-23T17:17:21.249Z,29.33
2024-02-23T17:19:51.679Z,20.05
2024-02-23T17:22:22.534Z,29.42
2024-02-23T17:24:50.808Z,31.43
2024-02-23T17:27:20.382Z,25.20
2024-02-23T17:29:48.653Z,21.83
2024-02-23T17:32:16.688Z,29.60
2024-02-23T17:34:46.627Z,22.77
2024-02-23T17:37:14.265Z,22.58
2024-02-23T17:39:42.203Z,30.83
2024-02-23T17:42:10.181Z,33.05
2024-02-23T17:44:37.995Z,27.90
2024-02-23T17:47:07.989Z,30.77
2024-02-23T17:49:35.855Z,29.35
2024-02-23T17:52:03.861Z,37.47
2024-02-23T17:54:31.766Z,29.12
2024-02-23T17:57:03.571Z,26.17
2024-02-23T17:59:31.674Z,34.97
2024-02-23T18:02:02.319Z,26.47
2024-02-23T18:04:30.423Z,37.92
2024-02-23T18:07:00.440Z,26.75
2024-02-23T18:09:28.283Z,34.15
2024-02-23T18:11:56.570Z,30.95
2024-02-23T18:14:24.510Z,42.35
2024-02-23T18:16:52.178Z,41.20
2024-02-23T18:19:21.732Z,34.00
2024-02-23T18:21:51.444Z,32.05
2024-02-23T18:24:20.183Z,38.40
2024-02-23T18:26:48.090Z,33.03
2024-02-23T18:29:16.498Z,45.00
2024-02-23T18:31:44.274Z,59.38
2024-02-23T18:34:12.298Z,41.45
2024-02-23T18:36:39.910Z,45.03
2024-02-23T18:39:10.746Z,46.80
2024-02-23T18:41:39.130Z,57.65
2024-02-23T18:44:07.262Z,47.53
2024-02-23T18:46:35.004Z,46.28
2024-02-23T18:49:03.175Z,41.17
2024-02-23T18:51:32.610Z,42.53
2024-02-23T18:54:00.292Z,59.03
2024-02-23T18:56:28.237Z,54.67
2024-02-23T18:58:56.285Z,36.38
2024-02-23T19:01:24.055Z,34.45
2024-02-23T19:03:52.107Z,38.60
2024-02-23T19:06:19.926Z,46.13
2024-02-23T19:08:47.620Z,44.15
2024-02-23T19:11:16.267Z,43.53
2024-02-23T19:13:43.970Z,40.83
2024-02-23T19:16:16.326Z,50.12
2024-02-23T19:18:44.409Z,43.80
2024-02-23T19:21:12.258Z,47.17
2024-02-23T19:23:39.979Z,46.83
2024-02-23T19:26:09.066Z,40.20
2024-02-23T19:28:38.616Z,36.50
2024-02-23T19:31:05.878Z,48.53
2024-02-23T19:33:33.800Z,52.38
2024-02-23T19:36:01.642Z,33.95
2024-02-23T19:38:29.299Z,30.25
2024-02-23T19:40:57.312Z,30.58
2024-02-23T19:43:28.991Z,36.67
2024-02-23T19:46:04.035Z,43.15
2024-02-23T19:48:42.476Z,50.08
2024-02-23T19:51:10.761Z,44.72
2024-02-23T19:53:38.724Z,39.67
2024-02-23T19:56:06.654Z,47.10
2024-02-23T19:58:34.600Z,46.55
2024-02-23T20:01:02.512Z,24.77
2024-02-23T20:07:04.247Z,37.10
2024-02-23T20:13:04.697Z,27.27
2024-02-23T20:18:52.019Z,22.95
2024-02-23T20:21:20.019Z,23.08
2024-02-23T20:23:47.826Z,33.08
2024-02-23T20:26:15.588Z,25.37
2024-02-23T20:28:43.784Z,26.20
2024-02-23T20:31:11.763Z,25.42
2024-02-23T20:33:42.436Z,30.12
2024-02-23T20:36:28.259Z,19.60
2024-02-23T20:39:00.173Z,20.42
2024-02-23T20:41:30.267Z,26.08
2024-02-23T20:43:58.589Z,32.60
2024-02-23T20:46:27.426Z,35.20
2024-02-23T20:48:57.733Z,21.30
2024-02-23T20:51:25.944Z,20.30
2024-02-23T20:53:53.638Z,18.12
2024-02-23T20:56:21.730Z,24.70
2024-02-23T20:58:50.089Z,20.12
2024-02-23T21:01:18.337Z,19.02
2024-02-23T21:03:46.365Z,15.32
2024-02-23T21:06:14.728Z,16.42
2024-02-23T21:08:43.040Z,17.80
2024-02-23T21:11:11.346Z,17.17
2024-02-23T21:13:40.000Z,16.62
2024-02-23T21:16:07.625Z,22.70
2024-02-23T21:18:35.672Z,18.30
2024-02-23T21:21:03.550Z,26.55
2024-02-23T21:23:31.265Z,32.45
2024-02-23T21:25:59.241Z,19.20
2024-02-23T21:28:27.158Z,18.65
2024-02-23T21:31:05.084Z,28.27
2024-02-23T21:33:34.277Z,22.15
2024-02-23T21:36:02.475Z,19.92
2024-02-23T21:38:30.551Z,20.08
2024-02-23T21:41:02.779Z,20.88
2024-02-23T21:43:32.057Z,16.65
2024-02-23T21:46:02.438Z,15.88
2024-02-23T21:48:30.214Z,20.27
2024-02-23T21:50:58.524Z,18.45
2024-02-23T21:53:26.522Z,17.75
2024-02-23T21:55:54.341Z,19.48
2024-02-23T21:58:21.937Z,13.20
2024-02-23T22:00:50.144Z,17.27
2024-02-23T22:03:19.729Z,16.85
2024-02-23T22:05:47.655Z,14.55
2024-02-23T22:08:15.314Z,11.73
2024-02-23T22:10:45.504Z,15.50
2024-02-23T22:13:15.284Z,15.05
2024-02-23T22:15:43.240Z,10.38
2024-02-23T22:18:10.399Z,30.80
2024-02-23T22:20:38.052Z,14.23
2024-02-23T22:23:05.569Z,12.45
2024-02-23T22:25:34.731Z,12.73
2024-02-23T22:28:01.828Z,14.98
2024-02-23T22:30:29.249Z,11.43
2024-02-23T22:32:57.070Z,17.95
2024-02-23T22:35:26.024Z,11.12
2024-02-23T22:37:54.047Z,20.70
2024-02-23T22:40:21.667Z,13.52
2024-02-23T22:42:48.828Z,18.73
2024-02-23T22:45:16.515Z,16.12
2024-02-23T22:47:45.575Z,13.52
2024-02-23T22:50:12.810Z,18.27
2024-02-23T22:52:42.901Z,12.88
2024-02-23T22:55:11.580Z,21.05
2024-02-23T22:57:40.338Z,13.65
2024-02-23T23:00:10.862Z,13.93
2024-02-23T23:02:41.775Z,12.50
2024-02-23T23:05:11.444Z,11.45
2024-02-23T23:07:38.954Z,12.73
2024-02-23T23:10:07.807Z,10.38
2024-02-23T23:12:46.856Z,14.60
2024-02-23T23:15:14.581Z,13.77
2024-02-23T23:17:44.050Z,15.52
2024-02-23T23:20:11.639Z,10.93
2024-02-23T23:22:39.254Z,12.07
2024-02-23T23:25:07.063Z,10.95
2024-02-23T23:27:34.259Z,23.30
2024-02-23T23:30:03.161Z,12.18
2024-02-23T23:32:31.334Z,11.45
2024-02-23T23:34:58.555Z,13.07
2024-02-23T23:37:25.736Z,12.45
2024-02-23T23:39:53.587Z,13.35
2024-02-23T23:42:23.012Z,10.50
2024-02-23T23:44:50.832Z,11.07
2024-02-23T23:47:18.317Z,9.98
2024-02-23T23:49:45.953Z,11.45
2024-02-23T23:52:13.358Z,12.10
2024-02-23T23:54:40.868Z,10.38
2024-02-23T23:57:08.885Z,9.85
2024-02-23T23:59:36.639Z,13.32
